sensor_id;sensor_type;location;lat;lon;timestamp;P1;durP1;ratioP1;P2;durP2;ratioP2
23567;SDS011;11962;50.838;4.430;2023-12-20T17:53:18;14.20;;;2.88;;
23567;SDS011;11962;50.838;4.430;2023-12-20T17:55:44;10.82;;;2.80;;
23567;SDS011;11962;50.838;4.430;2023-12-20T17:58:09;12.43;;;2.88;;
23567;SDS011;11962;50.838;4.430;2023-12-20T18:00:35;13.40;;;3.20;;
23567;SDS011;11962;50.838;4.430;2023-12-20T18:03:01;10.57;;;2.80;;
23567;SDS011;11962;50.838;4.430;2023-12-20T18:05:28;15.98;;;3.20;;
23567;SDS011;11962;50.838;4.430;2023-12-20T18:07:54;9.77;;;2.97;;
23567;SDS011;11962;50.838;4.430;2023-12-20T18:10:19;17.45;;;3.33;;
23567;SDS011;11962;50.838;4.430;2023-12-20T18:12:46;13.15;;;3.05;;
23567;SDS011;11962;50.838;4.430;2023-12-20T18:15:12;18.25;;;2.85;;
23567;SDS011;11962;50.838;4.430;2023-12-20T18:17:39;16.35;;;3.50;;
23567;SDS011;11962;50.838;4.430;2023-12-20T18:20:07;14.32;;;3.17;;
23567;SDS011;11962;50.838;4.430;2023-12-20T18:22:33;16.95;;;2.80;;
23567;SDS011;11962;50.838;4.430;2023-12-20T18:24:59;12.80;;;3.15;;
23567;SDS011;11962;50.838;4.430;2023-12-20T18:27:25;14.95;;;2.85;;
23567;SDS011;11962;50.838;4.430;2023-12-20T18:29:53;10.15;;;2.38;;
23567;SDS011;11962;50.838;4.430;2023-12-20T18:32:19;14.02;;;3.08;;
23567;SDS011;11962;50.838;4.430;2023-12-20T18:34:46;12.57;;;3.08;;
23567;SDS011;11962;50.838;4.430;2023-12-20T18:37:11;11.45;;;2.72;;
23567;SDS011;11962;50.838;4.430;2023-12-20T18:39:37;9.73;;;3.08;;
23567;SDS011;11962;50.838;4.430;2023-12-20T18:42:04;15.85;;;2.80;;
23567;SDS011;11962;50.838;4.430;2023-12-20T18:44:30;13.32;;;3.58;;
23567;SDS011;11962;50.838;4.430;2023-12-20T18:46:57;15.40;;;2.92;;
23567;SDS011;11962;50.838;4.430;2023-12-20T18:49:22;12.98;;;2.92;;
23567;SDS011;11962;50.838;4.430;2023-12-20T18:51:48;12.82;;;3.28;;
23567;SDS011;11962;50.838;4.430;2023-12-20T18:54:14;12.20;;;3.10;;
23567;SDS011;11962;50.838;4.430;2023-12-20T18:56:40;12.15;;;2.90;;
23567;SDS011;11962;50.838;4.430;2023-12-20T18:59:07;13.73;;;3.20;;
23567;SDS011;11962;50.838;4.430;2023-12-20T19:01:33;17.15;;;3.65;;
23567;SDS011;11962;50.838;4.430;2023-12-20T19:03:59;12.48;;;3.10;;
23567;SDS011;11962;50.838;4.430;2023-12-20T19:06:25;13.85;;;3.30;;
23567;SDS011;11962;50.838;4.430;2023-12-20T19:08:51;17.13;;;3.00;;
23567;SDS011;11962;50.838;4.430;2023-12-20T19:11:18;12.43;;;3.42;;
23567;SDS011;11962;50.838;4.430;2023-12-20T19:13:43;17.17;;;3.78;;
23567;SDS011;11962;50.838;4.430;2023-12-20T19:16:09;11.70;;;2.72;;
23567;SDS011;11962;50.838;4.430;2023-12-20T19:18:35;17.98;;;3.45;;
23567;SDS011;11962;50.838;4.430;2023-12-20T19:21:01;12.45;;;3.50;;
23567;SDS011;11962;50.838;4.430;2023-12-20T19:23:32;13.95;;;4.70;;
23567;SDS011;11962;50.838;4.430;2023-12-20T19:25:58;24.05;;;4.80;;
23567;SDS011;11962;50.838;4.430;2023-12-20T19:28:27;19.77;;;4.03;;
23567;SDS011;11962;50.838;4.430;2023-12-20T19:30:53;15.40;;;3.10;;
23567;SDS011;11962;50.838;4.430;2023-12-20T19:33:19;18.27;;;3.15;;
23567;SDS011;11962;50.838;4.430;2023-12-20T19:35:45;12.95;;;3.20;;
23567;SDS011;11962;50.838;4.430;2023-12-20T19:38:11;15.30;;;3.95;;
23567;SDS011;11962;50.838;4.430;2023-12-20T19:40:37;14.80;;;3.80;;
23567;SDS011;11962;50.838;4.430;2023-12-20T19:43:03;14.02;;;3.40;;
23567;SDS011;11962;50.838;4.430;2023-12-20T19:45:33;11.30;;;2.88;;
23567;SDS011;11962;50.838;4.430;2023-12-20T19:47:59;15.43;;;3.33;;
23567;SDS011;11962;50.838;4.430;2023-12-20T19:50:25;12.35;;;3.33;;
23567;SDS011;11962;50.838;4.430;2023-12-20T19:52:50;11.85;;;3.10;;
23567;SDS011;11962;50.838;4.430;2023-12-20T19:55:16;18.55;;;4.65;;
23567;SDS011;11962;50.838;4.430;2023-12-20T19:57:42;17.15;;;4.95;;
23567;SDS011;11962;50.838;4.430;2023-12-20T20:00:08;14.93;;;4.72;;
23567;SDS011;11962;50.838;4.430;2023-12-20T20:02:34;15.15;;;3.13;;
23567;SDS011;11962;50.838;4.430;2023-12-20T20:05:01;14.18;;;2.95;;
23567;SDS011;11962;50.838;4.430;2023-12-20T20:07:27;14.10;;;3.10;;
23567;SDS011;11962;50.838;4.430;2023-12-20T20:09:52;14.88;;;3.50;;
23567;SDS011;11962;50.838;4.430;2023-12-20T20:12:18;14.13;;;3.35;;
23567;SDS011;11962;50.838;4.430;2023-12-20T20:14:44;15.95;;;3.55;;
23567;SDS011;11962;50.838;4.430;2023-12-20T20:17:09;11.10;;;3.30;;
23567;SDS011;11962;50.838;4.430;2023-12-20T20:19:36;13.90;;;3.38;;
23567;SDS011;11962;50.838;4.430;2023-12-20T20:22:01;12.27;;;3.25;;
23567;SDS011;11962;50.838;4.430;2023-12-20T20:24:29;10.80;;;3.45;;
23567;SDS011;11962;50.838;4.430;2023-12-20T20:26:54;14.15;;;3.88;;
23567;SDS011;11962;50.838;4.430;2023-12-20T20:29:20;11.55;;;3.40;;
23567;SDS011;11962;50.838;4.430;2023-12-20T20:31:46;15.98;;;3.75;;
23567;SDS011;11962;50.838;4.430;2023-12-20T20:34:12;17.75;;;4.00;;
23567;SDS011;11962;50.838;4.430;2023-12-20T20:36:37;11.40;;;3.70;;
23567;SDS011;11962;50.838;4.430;2023-12-20T20:39:03;12.07;;;3.40;;
23567;SDS011;11962;50.838;4.430;2023-12-20T20:41:30;17.65;;;4.22;;
23567;SDS011;11962;50.838;4.430;2023-12-20T20:43:56;12.52;;;3.90;;
23567;SDS011;11962;50.838;4.430;2023-12-20T20:46:22;12.02;;;3.08;;
23567;SDS011;11962;50.838;4.430;2023-12-20T20:48:51;10.85;;;2.92;;
23567;SDS011;11962;50.838;4.430;2023-12-20T20:51:18;11.13;;;2.90;;
23567;SDS011;11962;50.838;4.430;2023-12-20T20:53:44;16.27;;;2.95;;
23567;SDS011;11962;50.838;4.430;2023-12-20T20:56:10;12.13;;;3.10;;
23567;SDS011;11962;50.838;4.430;2023-12-20T20:58:36;12.93;;;2.95;;
23567;SDS011;11962;50.838;4.430;2023-12-20T21:01:02;19.38;;;3.38;;
23567;SDS011;11962;50.838;4.430;2023-12-20T21:03:29;12.85;;;3.72;;
23567;SDS011;11962;50.838;4.430;2023-12-20T21:05:55;11.43;;;3.03;;
23567;SDS011;11962;50.838;4.430;2023-12-20T21:08:21;13.45;;;2.97;;
23567;SDS011;11962;50.838;4.430;2023-12-20T21:10:46;11.45;;;2.50;;
23567;SDS011;11962;50.838;4.430;2023-12-20T21:13:14;10.45;;;2.97;;
23567;SDS011;11962;50.838;4.430;2023-12-20T21:15:40;11.82;;;3.00;;
23567;SDS011;11962;50.838;4.430;2023-12-20T21:18:06;12.23;;;3.10;;
23567;SDS011;11962;50.838;4.430;2023-12-20T21:20:32;9.52;;;2.70;;
23567;SDS011;11962;50.838;4.430;2023-12-20T21:22:57;11.52;;;2.58;;
23567;SDS011;11962;50.838;4.430;2023-12-20T21:25:23;9.98;;;2.65;;
23567;SDS011;11962;50.838;4.430;2023-12-20T21:27:50;12.82;;;3.45;;
23567;SDS011;11962;50.838;4.430;2023-12-20T21:30:16;14.18;;;3.22;;
23567;SDS011;11962;50.838;4.430;2023-12-20T21:32:41;8.95;;;2.97;;
23567;SDS011;11962;50.838;4.430;2023-12-20T21:35:10;10.13;;;3.20;;
23567;SDS011;11962;50.838;4.430;2023-12-20T21:37:36;13.05;;;3.47;;
23567;SDS011;11962;50.838;4.430;2023-12-20T21:40:02;13.75;;;3.28;;
23567;SDS011;11962;50.838;4.430;2023-12-20T21:42:30;9.48;;;2.75;;
23567;SDS011;11962;50.838;4.430;2023-12-20T21:44:56;13.65;;;3.25;;
23567;SDS011;11962;50.838;4.430;2023-12-20T21:47:23;11.40;;;2.90;;
23567;SDS011;11962;50.838;4.430;2023-12-20T21:49:49;8.40;;;2.97;;
23567;SDS011;11962;50.838;4.430;2023-12-20T21:52:14;8.73;;;2.70;;
23567;SDS011;11962;50.838;4.430;2023-12-20T21:54:40;13.07;;;3.10;;
23567;SDS011;11962;50.838;4.430;2023-12-20T21:57:06;10.30;;;3.00;;
23567;SDS011;11962;50.838;4.430;2023-12-20T21:59:32;12.00;;;2.67;;
23567;SDS011;11962;50.838;4.430;2023-12-20T22:01:59;11.55;;;2.63;;
23567;SDS011;11962;50.838;4.430;2023-12-20T22:04:25;8.75;;;2.85;;
23567;SDS011;11962;50.838;4.430;2023-12-20T22:06:51;12.65;;;3.40;;
23567;SDS011;11962;50.838;4.430;2023-12-20T22:09:17;13.68;;;2.78;;
23567;SDS011;11962;50.838;4.430;2023-12-20T22:11:43;11.18;;;3.15;;
23567;SDS011;11962;50.838;4.430;2023-12-20T22:14:08;10.82;;;3.13;;
23567;SDS011;11962;50.838;4.430;2023-12-20T22:16:34;8.35;;;2.58;;
23567;SDS011;11962;50.838;4.430;2023-12-20T22:19:02;11.10;;;2.60;;
23567;SDS011;11962;50.838;4.430;2023-12-20T22:21:28;12.93;;;2.95;;
23567;SDS011;11962;50.838;4.430;2023-12-20T22:23:53;11.20;;;2.88;;
23567;SDS011;11962;50.838;4.430;2023-12-20T22:26:19;7.50;;;2.70;;
23567;SDS011;11962;50.838;4.430;2023-12-20T22:28:45;10.40;;;2.58;;
23567;SDS011;11962;50.838;4.430;2023-12-20T22:31:11;10.75;;;2.22;;
23567;SDS011;11962;50.838;4.430;2023-12-20T22:33:37;10.75;;;2.58;;
23567;SDS011;11962;50.838;4.430;2023-12-20T22:36:02;11.25;;;2.75;;
23567;SDS011;11962;50.838;4.430;2023-12-20T22:38:28;11.43;;;3.25;;
23567;SDS011;11962;50.838;4.430;2023-12-20T22:40:55;8.00;;;2.20;;
23567;SDS011;11962;50.838;4.430;2023-12-20T22:43:21;9.45;;;3.05;;
23567;SDS011;11962;50.838;4.430;2023-12-20T22:45:47;12.77;;;3.15;;
23567;SDS011;11962;50.838;4.430;2023-12-20T22:48:13;14.80;;;2.88;;
23567;SDS011;11962;50.838;4.430;2023-12-20T22:50:39;8.40;;;2.70;;
23567;SDS011;11962;50.838;4.430;2023-12-20T22:53:04;13.45;;;3.00;;
23567;SDS011;11962;50.838;4.430;2023-12-20T22:55:30;11.23;;;2.72;;
23567;SDS011;11962;50.838;4.430;2023-12-20T22:57:56;9.63;;;3.03;;
23567;SDS011;11962;50.838;4.430;2023-12-20T23:00:22;11.85;;;2.70;;
23567;SDS011;11962;50.838;4.430;2023-12-20T23:02:51;10.15;;;2.95;;
23567;SDS011;11962;50.838;4.430;2023-12-20T23:05:18;9.45;;;2.90;;
23567;SDS011;11962;50.838;4.430;2023-12-20T23:07:44;10.35;;;2.95;;
23567;SDS011;11962;50.838;4.430;2023-12-20T23:10:11;9.18;;;2.83;;
23567;SDS011;11962;50.838;4.430;2023-12-20T23:12:38;10.10;;;3.00;;
23567;SDS011;11962;50.838;4.430;2023-12-20T23:15:04;10.27;;;2.58;;
23567;SDS011;11962;50.838;4.430;2023-12-20T23:17:30;11.20;;;3.17;;
23567;SDS011;11962;50.838;4.430;2023-12-20T23:19:56;12.68;;;2.72;;
23567;SDS011;11962;50.838;4.430;2023-12-20T23:22:22;10.00;;;2.75;;
23567;SDS011;11962;50.838;4.430;2023-12-20T23:24:50;10.38;;;2.55;;
23567;SDS011;11962;50.838;4.430;2023-12-20T23:27:16;12.38;;;2.95;;
23567;SDS011;11962;50.838;4.430;2023-12-20T23:29:42;12.15;;;2.22;;
23567;SDS011;11962;50.838;4.430;2023-12-20T23:32:08;10.98;;;2.72;;
23567;SDS011;11962;50.838;4.430;2023-12-20T23:34:33;9.25;;;2.47;;
23567;SDS011;11962;50.838;4.430;2023-12-20T23:37:00;11.38;;;2.47;;
23567;SDS011;11962;50.838;4.430;2023-12-20T23:39:25;8.15;;;2.10;;
23567;SDS011;11962;50.838;4.430;2023-12-20T23:41:51;14.48;;;2.60;;
23567;SDS011;11962;50.838;4.430;2023-12-20T23:44:17;9.50;;;2.17;;
23567;SDS011;11962;50.838;4.430;2023-12-20T23:46:43;11.27;;;2.83;;
23567;SDS011;11962;50.838;4.430;2023-12-20T23:49:08;7.13;;;2.08;;
23567;SDS011;11962;50.838;4.430;2023-12-20T23:51:34;11.60;;;2.25;;
23567;SDS011;11962;50.838;4.430;2023-12-20T23:54:00;6.40;;;2.20;;
23567;SDS011;11962;50.838;4.430;2023-12-20T23:56:27;11.20;;;2.63;;
23567;SDS011;11962;50.838;4.430;2023-12-20T23:58:53;8.68;;;2.22;;
